Time;durP1;ratioP1;P1;durP2;ratioP2;P2;SDS_P1;SDS_P2;PMS_P1;PMS_P2;Temp;Humidity;BMP_temperature;BMP_pressure;BME280_temperature;BME280_humidity;BME280_pressure;Samples;Min_cycle;Max_cycle;Signal;HPM_P1;HPM_P2
2023/05/20 00:01:16;;;;;;;4.10;3.13;;;;;;;19.61;51.66;98895.78;4920314;29;20095;-78
2023/05/20 00:03:41;;;;;;;4.70;3.42;;;;;;;19.57;51.61;98886.53;4936997;29;20124;-77
2023/05/20 00:06:07;;;;;;;7.40;3.60;;;;;;;19.63;51.27;98898.28;4936530;29;20527;-77
2023/05/20 00:08:32;;;;;;;6.53;3.40;;;;;;;19.63;51.26;98892.97;4936594;29;20095;-77
2023/05/20 00:10:58;;;;;;;6.22;3.65;;;;;;;19.65;51.34;98896.28;4938015;29;20043;-77
2023/05/20 00:13:23;;;;;;;5.07;3.70;;;;;;;19.66;51.11;98900.56;4937222;29;20040;-77
2023/05/20 00:15:49;;;;;;;4.97;3.58;;;;;;;19.66;51.16;98887.34;4919915;29;20043;-77
2023/05/20 00:18:14;;;;;;;5.05;3.70;;;;;;;19.66;51.07;98888.16;4919889;29;20079;-77
2023/05/20 00:20:40;;;;;;;5.95;3.67;;;;;;;19.67;50.98;98892.47;4935971;29;20547;-77
2023/05/20 00:23:05;;;;;;;5.28;3.58;;;;;;;19.67;50.97;98895.09;4936614;29;20043;-87
2023/05/20 00:25:31;;;;;;;7.13;3.85;;;;;;;19.67;50.88;98884.53;4936232;29;20039;-79
2023/05/20 00:27:56;;;;;;;5.05;3.15;;;;;;;19.68;51.25;98886.16;4920013;29;20054;-79
2023/05/20 00:30:22;;;;;;;5.32;3.38;;;;;;;19.68;50.85;98877.38;4904296;29;20039;-78
2023/05/20 00:32:47;;;;;;;5.03;3.72;;;;;;;19.68;50.85;98878.19;4936186;29;20484;-80
2023/05/20 00:35:13;;;;;;;5.60;3.70;;;;;;;19.68;50.86;98875.56;4920863;29;20047;-81
2023/05/20 00:37:38;;;;;;;4.93;3.40;;;;;;;19.65;50.71;98869.78;4935693;29;20039;-80
2023/05/20 00:40:04;;;;;;;5.07;3.75;;;;;;;19.68;50.85;98867.63;4904051;29;20108;-81
2023/05/20 00:42:30;;;;;;;5.30;3.35;;;;;;;19.67;50.64;98865.97;4935728;29;20038;-80
2023/05/20 00:44:55;;;;;;;4.05;3.20;;;;;;;19.65;50.60;98859.19;4919865;29;20047;-81
2023/05/20 00:47:39;;;;;;;8.10;3.78;;;;;;;19.69;50.61;98879.88;4903965;29;20103;-80
2023/05/20 00:50:05;;;;;;;5.82;3.47;;;;;;;19.68;50.54;98878.19;4920057;29;20040;-81
2023/05/20 00:52:31;;;;;;;6.13;3.47;;;;;;;19.69;50.47;98879.88;4919564;29;20039;-79
2023/05/20 00:54:57;;;;;;;4.60;3.20;;;;;;;19.68;50.43;98891.44;4935036;29;20554;-81
2023/05/20 00:57:22;;;;;;;4.93;3.53;;;;;;;19.67;50.51;98892.47;4935517;29;20499;-81
2023/05/20 00:59:48;;;;;;;5.70;3.58;;;;;;;19.68;50.58;98894.09;4935201;29;20032;-81
2023/05/20 01:02:13;;;;;;;5.63;3.80;;;;;;;19.68;50.55;98893.28;4919674;29;20111;-82
2023/05/20 01:04:40;;;;;;;5.68;3.97;;;;;;;19.66;50.62;98890.81;4903492;29;20040;-80
2023/05/20 01:07:06;;;;;;;4.60;3.45;;;;;;;19.69;50.50;98882.50;4903885;29;20055;-80
2023/05/20 01:09:31;;;;;;;8.43;3.90;;;;;;;19.68;50.51;98880.84;4919502;29;20044;-79
2023/05/20 01:12:11;;;;;;;5.22;3.85;;;;;;;19.68;50.40;98867.63;4919481;29;20487;-79
2023/05/20 01:14:40;;;;;;;4.97;3.33;;;;;;;19.66;50.41;98868.81;4904440;29;20419;-80
2023/05/20 01:17:09;;;;;;;5.45;3.13;;;;;;;19.68;50.35;98867.63;4919988;29;20070;-79
2023/05/20 01:19:39;;;;;;;5.55;3.10;;;;;;;19.66;50.52;98859.03;4919746;29;20039;-79
2023/05/20 01:22:06;;;;;;;6.28;3.72;;;;;;;19.66;50.57;98855.56;4919132;29;20158;-79
2023/05/20 01:24:32;;;;;;;7.93;3.63;;;;;;;19.64;50.54;98857.53;4934945;29;20036;-80
2023/05/20 01:26:58;;;;;;;4.60;3.55;;;;;;;19.64;50.58;98850.44;4935257;29;20411;-79
2023/05/20 01:29:26;;;;;;;5.47;3.63;;;;;;;19.63;50.44;98858.56;4934863;29;20028;-78
2023/05/20 01:31:52;;;;;;;6.55;4.03;;;;;;;19.64;50.38;98852.25;4935174;29;20451;-80
2023/05/20 01:34:18;;;;;;;4.95;3.38;;;;;;;19.59;50.60;98833.41;4918868;29;20046;-79
2023/05/20 01:36:44;;;;;;;4.65;3.45;;;;;;;19.62;50.34;98846.31;4919289;29;20044;-79
2023/05/20 01:39:10;;;;;;;5.75;3.90;;;;;;;19.61;50.54;98858.72;4903045;29;20047;-79
2023/05/20 01:41:35;;;;;;;5.20;3.67;;;;;;;19.58;50.42;98860.91;4934968;29;20567;-79
2023/05/20 01:44:01;;;;;;;4.78;3.47;;;;;;;19.59;50.77;98868.63;4934670;29;20036;-81
2023/05/20 01:46:26;;;;;;;5.13;3.38;;;;;;;19.59;50.76;98865.19;4919135;29;20442;-78
2023/05/20 01:48:52;;;;;;;6.13;3.28;;;;;;;19.56;50.58;98869.00;4918867;29;20036;-77
2023/05/20 01:51:17;;;;;;;4.72;3.60;;;;;;;19.57;50.52;98875.94;4918597;29;20526;-81
2023/05/20 01:53:43;;;;;;;4.75;3.10;;;;;;;19.61;50.56;98893.16;4902825;29;20122;-79
2023/05/20 01:56:08;;;;;;;5.20;3.60;;;;;;;19.60;50.63;98904.72;4935806;29;20039;-79
2023/05/20 01:58:34;;;;;;;4.32;3.10;;;;;;;19.59;50.18;98904.91;4934129;29;20040;-79
2023/05/20 02:01:00;;;;;;;4.78;3.40;;;;;;;19.55;50.68;98903.59;4918871;29;20122;-77
2023/05/20 02:03:25;;;;;;;5.57;3.53;;;;;;;19.56;50.70;98913.19;4918749;29;20036;-79
2023/05/20 02:05:51;;;;;;;4.50;3.35;;;;;;;19.54;50.74;98921.28;4918345;29;20055;-88
2023/05/20 02:08:16;;;;;;;6.65;3.85;;;;;;;19.50;50.61;98912.06;4934216;29;20507;-79
2023/05/20 02:10:42;;;;;;;4.78;3.28;;;;;;;19.42;50.94;98896.16;4935845;29;20040;-79
2023/05/20 02:13:07;;;;;;;4.40;3.38;;;;;;;19.42;51.12;98910.25;4918663;29;20495;-78
2023/05/20 02:15:33;;;;;;;4.70;3.50;;;;;;;19.38;51.21;98906.28;4933940;29;20091;-78
2023/05/20 02:17:58;;;;;;;5.07;3.30;;;;;;;19.37;51.15;98907.28;4933862;29;20604;-78
2023/05/20 02:20:24;;;;;;;4.95;3.65;;;;;;;19.33;51.26;98904.13;4933837;29;20098;-78
2023/05/20 02:22:49;;;;;;;5.07;3.50;;;;;;;19.31;51.34;98906.13;4934020;29;20471;-78
2023/05/20 02:25:15;;;;;;;6.93;3.63;;;;;;;19.19;51.51;98888.97;4934275;29;20463;-78
2023/05/20 02:27:40;;;;;;;5.15;3.20;;;;;;;19.23;51.45;98900.88;4935368;29;20035;-78
2023/05/20 02:30:07;;;;;;;4.20;3.25;;;;;;;19.25;51.59;98908.63;4918339;29;20555;-78
2023/05/20 02:32:32;;;;;;;4.53;3.45;;;;;;;19.24;51.52;98918.38;4918506;29;20090;-78
2023/05/20 02:34:58;;;;;;;5.05;3.30;;;;;;;19.21;51.43;98904.66;4917969;29;20503;-78
2023/05/20 02:37:23;;;;;;;3.83;3.10;;;;;;;19.21;51.73;98905.47;4933943;29;20047;-78
2023/05/20 02:39:49;;;;;;;8.55;3.15;;;;;;;19.18;51.87;98895.22;4934034;29;20036;-79
2023/05/20 02:42:14;;;;;;;4.50;3.22;;;;;;;19.13;51.72;98895.78;4917998;29;20463;-78
2023/05/20 02:44:40;;;;;;;4.93;3.38;;;;;;;19.14;51.93;98894.75;4902290;29;20040;-78
2023/05/20 02:47:05;;;;;;;4.43;3.00;;;;;;;19.12;51.95;98891.47;4933826;29;20035;-78
2023/05/20 02:49:31;;;;;;;3.58;3.03;;;;;;;19.11;52.14;98895.09;4933782;29;20036;-78
2023/05/20 02:51:56;;;;;;;4.75;3.35;;;;;;;19.10;52.11;98892.63;4933779;29;20431;-78
2023/05/20 02:54:22;;;;;;;5.00;3.50;;;;;;;19.06;52.05;98893.97;4917751;29;20051;-78
2023/05/20 02:56:47;;;;;;;5.25;3.67;;;;;;;19.04;52.16;98907.34;4934474;29;20479;-78
2023/05/20 02:59:13;;;;;;;4.10;3.15;;;;;;;19.06;52.22;98920.41;4917760;29;20047;-78
2023/05/20 03:01:39;;;;;;;5.85;3.60;;;;;;;19.04;52.26;98932.97;4935040;29;20043;-79
2023/05/20 03:04:04;;;;;;;4.35;3.22;;;;;;;19.02;52.31;98943.72;4933623;29;20039;-79
2023/05/20 03:06:33;;;;;;;4.15;3.20;;;;;;;18.98;52.08;98947.69;4917452;29;20092;-78
2023/05/20 03:08:58;;;;;;;6.25;3.55;;;;;;;19.00;52.16;98948.34;4917925;29;20064;-78
2023/05/20 03:11:24;;;;;;;6.25;3.58;;;;;;;19.10;51.92;98941.09;4917613;29;20519;-78
2023/05/20 03:13:50;;;;;;;4.50;3.30;;;;;;;19.18;51.83;98937.56;4933720;29;20119;-78
2023/05/20 03:16:15;;;;;;;6.93;3.65;;;;;;;19.14;51.91;98923.03;4933446;29;20047;-78
2023/05/20 03:18:41;;;;;;;5.63;3.30;;;;;;;19.09;52.01;98918.25;4933657;29;20462;-79
2023/05/20 03:21:07;;;;;;;4.80;3.20;;;;;;;19.06;51.95;98923.88;4934606;29;20134;-78
2023/05/20 03:23:32;;;;;;;5.20;3.20;;;;;;;18.99;52.20;98917.59;4917780;29;20122;-78
2023/05/20 03:25:58;;;;;;;7.00;3.15;;;;;;;19.04;52.03;98923.22;4934455;29;20487;-78
2023/05/20 03:28:23;;;;;;;3.97;3.03;;;;;;;19.15;51.96;98922.88;4935895;29;20103;-78
2023/05/20 03:30:49;;;;;;;4.40;3.17;;;;;;;19.16;51.87;98924.53;4937316;29;20044;-79
2023/05/20 03:33:14;;;;;;;4.43;2.92;;;;;;;19.11;51.97;98916.25;4936599;29;20047;-78
2023/05/20 03:35:40;;;;;;;4.28;3.20;;;;;;;19.12;51.92;98925.03;4921266;29;20055;-78
2023/05/20 03:38:06;;;;;;;5.35;3.15;;;;;;;19.09;52.13;98923.53;4920962;29;20043;-78
2023/05/20 03:40:31;;;;;;;4.45;3.25;;;;;;;19.13;51.98;98921.38;4921484;29;20050;-78
2023/05/20 03:42:57;;;;;;;6.25;3.20;;;;;;;19.69;50.89;98918.78;4921318;29;20083;-78
2023/05/20 03:45:22;;;;;;;4.38;2.90;;;;;;;20.41;49.18;98921.25;4936835;29;20055;-78
2023/05/20 03:47:48;;;;;;;4.65;3.10;;;;;;;21.06;47.86;98923.56;4920398;29;20040;-78
2023/05/20 03:50:13;;;;;;;6.60;3.08;;;;;;;21.71;46.53;98923.91;4936744;29;20051;-78
2023/05/20 03:52:39;;;;;;;6.22;3.15;;;;;;;22.39;45.24;98922.72;4936477;29;20047;-78
2023/05/20 03:55:05;;;;;;;4.63;2.65;;;;;;;23.09;43.92;98927.47;4936539;29;20035;-78
2023/05/20 03:57:31;;;;;;;4.50;2.78;;;;;;;23.87;42.46;98943.31;4920422;29;20066;-78
2023/05/20 03:59:56;;;;;;;5.20;2.88;;;;;;;24.50;41.06;98943.09;4920242;29;20042;-78
2023/05/20 04:02:22;;;;;;;5.00;2.70;;;;;;;25.05;40.24;98950.19;4937492;29;20090;-79
2023/05/20 04:04:51;;;;;;;4.28;2.67;;;;;;;24.36;41.58;98952.09;4920369;29;20087;-78
2023/05/20 04:07:17;;;;;;;3.92;2.72;;;;;;;23.93;42.24;98947.84;4935948;29;20063;-78
2023/05/20 04:09:43;;;;;;;4.45;2.95;;;;;;;23.66;42.78;98946.88;4904110;29;20432;-78
2023/05/20 04:12:08;;;;;;;3.47;2.80;;;;;;;23.42;43.33;98942.81;4919893;29;20081;-79
2023/05/20 04:14:33;;;;;;;5.57;2.70;;;;;;;23.19;43.58;98933.25;4920081;29;20039;-80
2023/05/20 04:17:01;;;;;;;4.38;2.90;;;;;;;22.93;44.08;98936.53;4918742;29;20054;-79
2023/05/20 04:19:27;;;;;;;5.13;3.05;;;;;;;22.72;44.63;98943.50;4919843;29;20062;-80
2023/05/20 04:21:52;;;;;;;3.67;3.05;;;;;;;22.47;45.03;98937.75;4919871;29;20484;-79
2023/05/20 04:24:18;;;;;;;4.20;2.90;;;;;;;22.29;45.38;98935.47;4919797;29;20035;-79
2023/05/20 04:26:43;;;;;;;4.97;2.95;;;;;;;22.14;46.02;98935.50;4919758;29;20464;-78
2023/05/20 04:29:10;;;;;;;3.35;2.80;;;;;;;21.97;46.52;98924.25;4936638;29;20075;-78
2023/05/20 04:31:37;;;;;;;4.15;3.00;;;;;;;21.83;46.60;98915.28;4936496;29;20484;-78
2023/05/20 04:34:03;;;;;;;4.28;3.00;;;;;;;21.74;46.99;98924.38;4917743;29;20043;-78
2023/05/20 04:36:29;;;;;;;5.30;3.33;;;;;;;21.63;47.21;98920.38;4933533;29;20568;-79
2023/05/20 04:38:55;;;;;;;4.13;3.10;;;;;;;21.58;47.44;98922.72;4918162;29;20043;-78
2023/05/20 04:41:20;;;;;;;3.60;2.72;;;;;;;21.48;47.52;98919.50;4935864;29;20047;-77
2023/05/20 04:43:46;;;;;;;4.63;2.90;;;;;;;21.43;47.93;98920.06;4935649;29;20070;-78
2023/05/20 04:46:11;;;;;;;3.70;2.88;;;;;;;21.36;48.03;98913.81;4903737;29;20510;-78
2023/05/20 04:48:37;;;;;;;3.58;2.95;;;;;;;21.33;48.27;98919.47;4903800;29;20054;-78
2023/05/20 04:51:02;;;;;;;4.05;3.10;;;;;;;21.32;47.91;98937.25;4935095;29;20043;-78
2023/05/20 04:53:29;;;;;;;5.38;2.70;;;;;;;21.28;48.22;98935.16;4935301;29;20043;-79
2023/05/20 04:55:55;;;;;;;4.78;3.08;;;;;;;21.26;48.41;98945.13;4904067;29;20036;-78
2023/05/20 04:58:23;;;;;;;5.03;2.85;;;;;;;21.24;48.45;98947.16;4935260;29;20035;-78
2023/05/20 05:00:49;;;;;;;3.88;2.83;;;;;;;21.20;48.41;98946.66;4936424;29;20028;-79
2023/05/20 05:03:15;;;;;;;6.68;3.28;;;;;;;21.23;48.34;98956.91;4935187;29;20498;-80
2023/05/20 05:05:41;;;;;;;5.40;3.00;;;;;;;21.23;48.28;98956.09;4919142;29;20051;-79
2023/05/20 05:08:07;;;;;;;4.05;3.00;;;;;;;21.25;48.32;98957.59;4934952;29;20047;-79
2023/05/20 05:10:32;;;;;;;4.05;2.80;;;;;;;21.28;48.42;98956.38;4919029;29;20050;-78
2023/05/20 05:12:59;;;;;;;4.35;2.72;;;;;;;21.34;48.23;98953.00;4935531;29;20040;-79
2023/05/20 05:15:25;;;;;;;3.95;3.17;;;;;;;21.36;48.34;98944.84;4919488;29;20040;-80
2023/05/20 05:17:50;;;;;;;11.95;3.13;;;;;;;21.42;48.22;98950.25;4934437;29;20463;-79
2023/05/20 05:20:17;;;;;;;3.42;2.78;;;;;;;21.48;47.86;98941.59;4918985;29;20070;-79
2023/05/20 05:22:43;;;;;;;3.22;2.88;;;;;;;21.59;48.14;98956.25;4918694;29;20046;-80
2023/05/20 05:25:09;;;;;;;3.25;2.70;;;;;;;21.63;47.62;98956.72;4903754;29;20040;-78
2023/05/20 05:27:35;;;;;;;3.65;2.90;;;;;;;21.77;47.38;98971.00;4919412;29;20032;-79
2023/05/20 05:30:01;;;;;;;4.78;2.83;;;;;;;21.84;47.15;98977.25;4919250;29;20106;-82
2023/05/20 05:32:27;;;;;;;5.85;2.80;;;;;;;21.93;47.44;98977.97;4934903;29;20122;-78
2023/05/20 05:34:52;;;;;;;4.65;3.03;;;;;;;22.05;47.21;98989.78;4935217;29;20123;-79
2023/05/20 05:37:18;;;;;;;4.60;3.03;;;;;;;22.16;46.80;98978.66;4918783;29;20071;-79
2023/05/20 05:39:43;;;;;;;3.58;2.80;;;;;;;22.34;47.06;98978.28;4935860;29;20061;-73
2023/05/20 05:42:09;;;;;;;7.13;3.08;;;;;;;22.62;47.16;98980.22;4934392;29;20071;-76
2023/05/20 05:44:34;;;;;;;6.68;3.00;;;;;;;22.86;46.48;98975.56;4934834;29;20044;-78
2023/05/20 05:47:00;;;;;;;8.93;2.60;;;;;;;23.29;45.26;98965.72;4918668;29;20046;-77
2023/05/20 05:49:25;;;;;;;8.50;3.25;;;;;;;23.86;44.18;98964.84;4903530;29;20048;-78
2023/05/20 05:51:51;;;;;;;4.00;2.92;;;;;;;26.23;39.29;98968.03;4934441;29;20122;-77
2023/05/20 05:54:16;;;;;;;9.15;3.10;;;;;;;28.09;36.71;98959.50;4941323;29;20052;-79
2023/05/20 05:56:42;;;;;;;3.63;2.42;;;;;;;29.68;34.39;98956.44;4921199;29;20040;-78
2023/05/20 05:59:07;;;;;;;5.25;3.20;;;;;;;31.01;30.25;98952.75;4902970;29;20056;-74
2023/05/20 06:01:33;;;;;;;5.68;3.20;;;;;;;32.08;28.14;98953.44;4934985;29;20507;-80
2023/05/20 06:03:59;;;;;;;4.57;3.08;;;;;;;33.09;26.22;98945.72;4935011;29;20067;-75
2023/05/20 06:06:25;;;;;;;7.43;2.80;;;;;;;33.95;24.80;98953.81;4918114;29;20502;-76
2023/05/20 06:08:50;;;;;;;5.45;3.35;;;;;;;34.71;23.72;98953.19;4918257;29;20043;-73
2023/05/20 06:11:16;;;;;;;6.63;3.42;;;;;;;35.33;22.61;98958.59;4934961;29;20051;-78
2023/05/20 06:13:41;;;;;;;7.57;3.70;;;;;;;35.81;21.64;98964.44;4935181;29;20047;-78
2023/05/20 06:16:06;;;;;;;11.73;5.70;;;;;;;36.21;21.34;98965.34;4902274;29;20134;-73
2023/05/20 06:18:32;;;;;;;7.43;4.20;;;;;;;36.61;20.54;98962.66;4935123;29;20050;-72
2023/05/20 06:20:58;;;;;;;7.00;4.45;;;;;;;36.97;20.38;98975.16;4933891;29;20051;-74
2023/05/20 06:23:23;;;;;;;7.47;4.07;;;;;;;37.29;20.07;98975.44;4934181;29;20039;-79
2023/05/20 06:25:49;;;;;;;6.22;3.55;;;;;;;37.63;20.14;98969.06;4902507;29;20492;-77
2023/05/20 06:28:15;;;;;;;9.98;3.03;;;;;;;37.86;20.86;98963.09;4935493;29;20039;-74
2023/05/20 06:30:40;;;;;;;12.13;3.63;;;;;;;37.75;20.19;98962.41;4933871;29;20502;-74
2023/05/20 06:33:06;;;;;;;11.38;4.28;;;;;;;37.50;19.92;98952.59;4902193;29;20123;-76
2023/05/20 06:35:34;;;;;;;8.65;3.83;;;;;;;36.71;20.43;98959.03;4917875;29;20055;-76
2023/05/20 06:38:00;;;;;;;7.13;4.18;;;;;;;36.40;20.17;98972.84;4918472;29;20107;-74
2023/05/20 06:40:26;;;;;;;6.85;3.97;;;;;;;36.80;19.89;98964.69;4933921;29;20044;-75
2023/05/20 06:42:52;;;;;;;7.22;3.78;;;;;;;37.16;19.74;98970.63;4917928;29;20023;-76
2023/05/20 06:45:17;;;;;;;8.27;3.67;;;;;;;37.23;19.74;98965.69;4934824;29;20508;-77
2023/05/20 06:47:43;;;;;;;5.70;3.33;;;;;;;37.15;19.46;98955.41;4933837;29;20050;-78
2023/05/20 06:50:09;;;;;;;5.03;3.40;;;;;;;37.15;19.25;98957.31;4933470;29;20040;-75
2023/05/20 06:52:35;;;;;;;7.93;3.58;;;;;;;37.01;19.52;98974.31;4901792;29;20435;-71
2023/05/20 06:55:01;;;;;;;10.43;4.13;;;;;;;36.60;20.22;98958.31;4935036;29;20045;-77
2023/05/20 06:57:26;;;;;;;12.70;4.07;;;;;;;35.62;20.52;98968.84;4934984;29;20492;-77
2023/05/20 06:59:51;;;;;;;7.10;3.70;;;;;;;34.91;21.39;98968.66;4936490;29;20480;-70
2023/05/20 07:02:17;;;;;;;11.15;3.90;;;;;;;34.58;21.89;98959.94;4935645;29;20032;-81
2023/05/20 07:04:42;;;;;;;12.80;3.78;;;;;;;33.74;24.84;98961.84;4922169;29;20495;-73
2023/05/20 07:07:08;;;;;;;25.48;3.63;;;;;;;33.02;27.01;98964.09;4937341;29;20059;-69
2023/05/20 07:09:33;;;;;;;11.90;3.42;;;;;;;32.27;27.71;98964.72;4938575;29;20066;-69
2023/05/20 07:11:59;;;;;;;8.50;3.60;;;;;;;31.64;29.18;98976.88;4937213;29;20040;-68
2023/05/20 07:14:25;;;;;;;16.90;3.88;;;;;;;31.40;29.35;98979.78;4938568;29;20040;-68
2023/05/20 07:16:50;;;;;;;9.13;3.70;;;;;;;30.97;30.00;98974.00;4938731;29;20102;-70
2023/05/20 07:19:16;;;;;;;10.93;3.83;;;;;;;30.46;30.38;98979.31;4905813;29;20039;-68
2023/05/20 07:21:41;;;;;;;16.08;3.95;;;;;;;30.00;32.05;98975.69;4936995;29;20492;-69
2023/05/20 07:24:07;;;;;;;25.35;3.97;;;;;;;29.58;32.73;98989.31;4936734;29;20087;-69
2023/05/20 07:26:35;;;;;;;22.25;3.92;;;;;;;29.19;33.96;98987.09;4938286;29;20059;-67
2023/05/20 07:29:03;;;;;;;11.68;4.25;;;;;;;28.85;34.02;98991.31;4937140;29;20388;-69
2023/05/20 07:31:29;;;;;;;12.85;4.43;;;;;;;28.48;33.80;98992.25;4921117;29;20039;-69
2023/05/20 07:33:55;;;;;;;16.73;5.50;;;;;;;28.22;35.10;98989.91;4938372;29;20071;-69
2023/05/20 07:36:21;;;;;;;20.80;7.45;;;;;;;28.01;36.10;98992.00;4938136;29;20142;-69
2023/05/20 07:38:46;;;;;;;18.27;7.13;;;;;;;27.77;36.65;98993.72;4936840;29;20050;-72
2023/05/20 07:41:11;;;;;;;22.58;7.30;;;;;;;27.55;37.39;99009.41;4905282;29;20051;-68
2023/05/20 07:43:37;;;;;;;24.45;7.00;;;;;;;27.31;37.89;99014.56;4936875;29;20074;-71
2023/05/20 07:46:03;;;;;;;20.08;6.00;;;;;;;27.12;36.98;99012.81;4936813;29;20052;-72
2023/05/20 07:48:28;;;;;;;12.57;6.03;;;;;;;27.01;36.81;99012.50;4937125;29;20036;-77
2023/05/20 07:50:57;;;;;;;20.25;5.88;;;;;;;27.00;36.40;99018.06;4921191;29;20043;-73
2023/05/20 07:53:23;;;;;;;12.93;5.03;;;;;;;26.96;36.20;99012.31;4921622;29;20040;-75
2023/05/20 07:55:49;;;;;;;12.55;5.53;;;;;;;26.94;35.69;99011.72;4936767;29;20098;-74
2023/05/20 07:58:14;;;;;;;9.73;5.32;;;;;;;26.89;35.90;99015.03;4919171;29;20126;-76
2023/05/20 08:00:40;;;;;;;13.15;5.80;;;;;;;26.83;36.00;99010.53;4919037;29;20051;-75
2023/05/20 08:03:06;;;;;;;11.23;5.25;;;;;;;26.80;35.89;99010.16;4920717;29;20044;-73
2023/05/20 08:05:32;;;;;;;12.57;5.30;;;;;;;26.86;35.70;99020.00;4920496;29;20055;-74
2023/05/20 08:07:57;;;;;;;11.38;5.00;;;;;;;26.90;35.22;99011.31;4937000;29;20090;-75
2023/05/20 08:10:23;;;;;;;8.25;4.93;;;;;;;27.17;34.83;98999.59;4936089;29;20076;-74
2023/05/20 08:12:48;;;;;;;9.27;4.85;;;;;;;27.38;34.66;98991.19;4936208;29;20043;-74
2023/05/20 08:15:14;;;;;;;11.10;4.63;;;;;;;27.56;34.14;98985.06;4935581;29;20460;-74
2023/05/20 08:17:39;;;;;;;6.63;4.35;;;;;;;27.85;33.30;98984.53;4937216;29;20491;-74
2023/05/20 08:20:07;;;;;;;9.65;4.50;;;;;;;27.88;33.24;98987.59;4936135;29;20480;-76
2023/05/20 08:22:32;;;;;;;6.73;4.13;;;;;;;27.98;33.07;98984.41;4935956;29;20483;-74
2023/05/20 08:24:57;;;;;;;6.75;4.07;;;;;;;28.03;33.02;98991.78;4920153;29;20040;-75
2023/05/20 08:27:23;;;;;;;6.55;4.32;;;;;;;28.00;33.23;98986.88;4919867;29;20063;-76
2023/05/20 08:29:49;;;;;;;7.05;3.97;;;;;;;27.92;33.37;98988.78;4920277;29;20102;-74
2023/05/20 08:32:15;;;;;;;11.52;4.47;;;;;;;27.84;33.77;98988.25;4920044;29;20062;-73
2023/05/20 08:34:41;;;;;;;7.13;4.45;;;;;;;27.65;33.86;98988.25;4935799;29;20040;-74
2023/05/20 08:37:07;;;;;;;6.40;4.85;;;;;;;27.52;34.13;98991.06;4919881;29;20427;-74
2023/05/20 08:39:32;;;;;;;8.40;4.90;;;;;;;27.37;34.26;98994.94;4935861;29;20039;-74
2023/05/20 08:41:58;;;;;;;5.88;5.07;;;;;;;27.27;34.35;98998.06;4935379;29;20210;-75
2023/05/20 08:44:23;;;;;;;8.05;5.25;;;;;;;27.23;34.55;99001.38;4919488;29;20036;-75
2023/05/20 08:46:49;;;;;;;6.55;4.97;;;;;;;27.26;34.35;98993.75;4919546;29;20043;-75
2023/05/20 08:49:14;;;;;;;7.82;4.90;;;;;;;27.29;33.88;99003.19;4903932;29;20044;-74
2023/05/20 08:51:41;;;;;;;8.40;4.75;;;;;;;27.31;34.15;99000.31;4935347;29;20074;-73
2023/05/20 08:54:07;;;;;;;7.95;4.53;;;;;;;27.24;33.88;98995.81;4919803;29;20380;-73
2023/05/20 08:56:33;;;;;;;8.88;5.07;;;;;;;27.15;34.40;98994.47;4919584;29;20081;-74
2023/05/20 08:58:58;;;;;;;7.88;4.57;;;;;;;27.01;34.62;98995.59;4935606;29;20131;-75
2023/05/20 09:01:24;;;;;;;7.65;4.80;;;;;;;26.82;34.85;98989.34;4919281;29;20138;-74
2023/05/20 09:03:50;;;;;;;9.00;4.75;;;;;;;26.59;35.37;98993.38;4919736;29;20140;-74
2023/05/20 09:06:18;;;;;;;7.95;4.70;;;;;;;26.43;35.48;98983.19;4918893;29;20063;-74
2023/05/20 09:08:45;;;;;;;8.30;5.00;;;;;;;26.24;35.86;98980.38;4919650;29;20484;-74
2023/05/20 09:11:11;;;;;;;5.10;4.60;;;;;;;26.08;36.14;98980.88;4935006;29;20036;-74
2023/05/20 09:13:36;;;;;;;8.13;5.40;;;;;;;25.92;36.27;98974.94;4919220;29;20035;-73
2023/05/20 09:16:02;;;;;;;10.13;5.07;;;;;;;25.79;36.83;98973.13;4935552;29;20070;-73
2023/05/20 09:18:28;;;;;;;7.93;4.40;;;;;;;25.64;36.76;98969.84;4919203;29;20091;-75
2023/05/20 09:20:53;;;;;;;8.93;4.75;;;;;;;25.55;37.10;98971.91;4918921;29;20036;-74
2023/05/20 09:23:21;;;;;;;9.40;4.65;;;;;;;25.45;37.21;98971.53;4918851;29;20039;-74
2023/05/20 09:25:50;;;;;;;7.10;4.40;;;;;;;25.32;37.43;98972.38;4919406;29;20047;-76
2023/05/20 09:28:18;;;;;;;5.68;4.28;;;;;;;25.23;37.72;98971.72;4918917;29;20554;-73
2023/05/20 09:30:43;;;;;;;7.47;4.27;;;;;;;25.12;37.93;98968.88;4934499;29;20075;-73
2023/05/20 09:33:10;;;;;;;7.00;4.45;;;;;;;24.94;38.40;98967.63;4918655;29;20035;-74
2023/05/20 09:35:38;;;;;;;7.43;4.20;;;;;;;24.84;38.57;98964.53;4918408;29;20534;-75
2023/05/20 09:38:05;;;;;;;5.85;4.28;;;;;;;24.70;38.65;98959.19;4934517;29;20508;-75
2023/05/20 09:40:30;;;;;;;8.93;4.28;;;;;;;24.59;38.76;98954.47;4918598;29;20035;-74
2023/05/20 09:43:00;;;;;;;9.40;4.22;;;;;;;24.58;39.01;98954.66;4936016;29;20425;-75
2023/05/20 09:45:26;;;;;;;7.47;4.30;;;;;;;24.53;39.22;98941.91;4918859;29;20125;-76
2023/05/20 09:47:52;;;;;;;6.10;4.10;;;;;;;24.52;39.29;98941.06;4902869;29;20056;-74
2023/05/20 09:50:20;;;;;;;7.18;4.50;;;;;;;24.51;39.16;98939.44;4918694;29;20094;-78
2023/05/20 09:52:46;;;;;;;7.57;4.55;;;;;;;24.51;39.04;98935.91;4918988;29;20036;-77
2023/05/20 09:55:11;;;;;;;5.70;4.35;;;;;;;24.49;38.98;98927.31;4918441;29;20047;-77
2023/05/20 09:57:37;;;;;;;7.45;4.53;;;;;;;24.56;39.06;98926.31;4902764;29;20495;-75
2023/05/20 10:00:04;;;;;;;7.10;4.50;;;;;;;24.62;38.77;98929.19;4918411;29;20035;-75
2023/05/20 10:02:30;;;;;;;6.05;4.28;;;;;;;24.62;38.74;98931.88;4918895;29;20037;-76
2023/05/20 10:04:55;;;;;;;7.20;4.57;;;;;;;24.65;38.73;98934.13;4934136;29;20044;-75
2023/05/20 10:07:43;;;;;;;7.72;4.78;;;;;;;24.68;38.61;98931.88;4918243;29;20046;-73
2023/05/20 10:10:48;;;;;;;6.43;4.47;;;;;;;24.77;38.34;98934.34;4934706;29;20079;-75
2023/05/20 10:13:34;;;;;;;5.32;4.03;;;;;;;24.87;38.23;98929.41;4861308;29;20049;-73
2023/05/20 10:16:05;;;;;;;6.35;4.40;;;;;;;25.01;38.06;98925.72;4876878;29;20532;-75
2023/05/20 10:18:40;;;;;;;5.85;4.18;;;;;;;25.20;37.64;98924.06;4876615;29;20061;-73
2023/05/20 10:21:14;;;;;;;8.02;4.05;;;;;;;25.57;36.74;98913.75;4846098;29;20041;-74
2023/05/20 10:23:40;;;;;;;7.50;4.13;;;;;;;25.85;35.98;98930.53;4830482;29;20068;-74
2023/05/20 10:26:06;;;;;;;7.43;4.00;;;;;;;25.98;36.05;98928.66;4845448;29;20048;-73
2023/05/20 10:28:35;;;;;;;6.30;3.83;;;;;;;26.29;35.67;98924.34;4860976;29;20509;-75
2023/05/20 10:31:00;;;;;;;7.63;3.78;;;;;;;26.54;34.85;98923.59;4861000;29;20466;-75
2023/05/20 10:33:26;;;;;;;7.13;3.65;;;;;;;26.71;34.58;98927.41;4876154;29;20053;-75
2023/05/20 10:35:53;;;;;;;5.63;3.55;;;;;;;26.87;34.07;98923.38;4860985;29;20081;-72
2023/05/20 10:38:20;;;;;;;8.30;3.90;;;;;;;26.89;34.39;98923.97;4845016;29;20052;-73
2023/05/20 10:40:45;;;;;;;6.45;3.60;;;;;;;26.85;34.07;98916.59;4830539;29;20037;-73
2023/05/20 10:43:14;;;;;;;6.75;3.42;;;;;;;26.83;34.45;98927.53;4857008;29;20082;-76
2023/05/20 10:45:50;;;;;;;7.20;3.38;;;;;;;26.78;33.88;98931.91;4933764;29;20039;-74
2023/05/20 10:48:22;;;;;;;5.70;3.72;;;;;;;26.61;34.31;98920.88;4917935;29;20494;-72
2023/05/20 10:50:47;;;;;;;6.00;3.45;;;;;;;26.63;34.57;98933.00;4917678;29;20187;-73
2023/05/20 10:53:13;;;;;;;7.60;4.13;;;;;;;26.59;34.67;98939.81;4917510;29;20522;-74
2023/05/20 10:55:40;;;;;;;7.70;3.83;;;;;;;26.50;34.58;98944.63;4933579;29;20414;-73
2023/05/20 10:58:06;;;;;;;5.78;3.30;;;;;;;26.36;34.74;98938.53;4917818;29;20091;-74
2023/05/20 11:00:34;;;;;;;7.82;3.42;;;;;;;26.26;35.33;98934.69;4934672;29;20031;-74
2023/05/20 11:03:00;;;;;;;10.00;3.85;;;;;;;26.20;35.24;98936.34;4902201;29;20083;-73
2023/05/20 11:05:26;;;;;;;9.43;3.47;;;;;;;26.10;35.63;98946.69;4917421;29;20059;-74
2023/05/20 11:07:59;;;;;;;10.55;3.80;;;;;;;26.03;35.67;98936.03;4917675;29;20075;-74
2023/05/20 11:10:25;;;;;;;6.10;3.38;;;;;;;26.02;35.88;98931.72;4933705;29;20487;-76
2023/05/20 11:12:51;;;;;;;10.07;3.80;;;;;;;26.00;35.84;98942.63;4933305;29;20051;-75
2023/05/20 11:15:16;;;;;;;7.82;3.80;;;;;;;25.90;35.90;98936.88;4933306;29;20106;-75
2023/05/20 11:17:54;;;;;;;9.30;3.40;;;;;;;25.91;35.95;98949.19;4917784;29;20465;-76
2023/05/20 11:20:23;;;;;;;5.57;3.60;;;;;;;25.90;36.02;98947.59;4901473;29;20419;-75
2023/05/20 11:22:50;;;;;;;7.10;3.47;;;;;;;25.89;36.25;98939.78;4898469;29;20044;-76
2023/05/20 11:25:16;;;;;;;8.32;3.65;;;;;;;25.80;36.14;98939.97;4914799;29;20040;-76
2023/05/20 11:27:42;;;;;;;7.63;3.40;;;;;;;25.83;36.46;98946.78;4913990;29;20048;-74